createdAt,value
2022-11-04T00:00:05.069Z,10.69641113
2022-11-04T00:01:05.898Z,10.68634033
2022-11-04T00:02:06.995Z,10.69641113
2022-11-04T00:03:07.778Z,10.69641113
2022-11-04T00:04:08.218Z,10.67626953
2022-11-04T00:05:08.980Z,10.61584473
2022-11-04T00:06:09.593Z,10.61584473
2022-11-04T00:07:10.714Z,10.59570313
2022-11-04T00:08:11.410Z,10.59570313
2022-11-04T00:09:11.982Z,10.59570313
2022-11-04T00:10:13.419Z,10.59570313
2022-11-04T00:11:44.896Z,10.57556152
2022-11-04T00:12:45.463Z,10.54534912
2022-11-04T00:13:45.948Z,10.51513672
2022-11-04T00:14:46.792Z,10.49499512
2022-11-04T00:15:47.507Z,10.51513672
2022-11-04T00:16:48.034Z,10.51513672
2022-11-04T00:17:48.681Z,10.53527832
2022-11-04T00:18:49.244Z,10.54534912
2022-11-04T00:19:49.866Z,10.51513672
2022-11-04T00:20:51.164Z,10.54534912
2022-11-04T00:21:51.967Z,10.57556152
2022-11-04T00:22:52.532Z,10.56549072
2022-11-04T00:23:53.111Z,10.53527832
2022-11-04T00:24:53.727Z,10.51513672
2022-11-04T00:25:54.535Z,10.46478271
2022-11-04T00:26:55.311Z,10.46478271
2022-11-04T00:27:55.983Z,10.44464111
2022-11-04T00:28:56.577Z,10.44464111
2022-11-04T00:29:57.887Z,10.46478271
2022-11-04T00:30:59.381Z,10.46478271
2022-11-04T00:31:59.932Z,10.49499512
2022-11-04T00:33:00.479Z,10.47485352
2022-11-04T00:34:01.008Z,10.47485352
2022-11-04T00:35:01.604Z,10.49499512
2022-11-04T00:36:02.465Z,10.47485352
2022-11-04T00:37:03.270Z,10.44464111
2022-11-04T00:38:05.194Z,10.43457031
2022-11-04T00:39:05.391Z,10.38421631
2022-11-04T00:40:06.882Z,10.42449951
2022-11-04T00:41:07.435Z,10.42449951
2022-11-04T00:42:08.740Z,10.42449951
2022-11-04T00:43:09.283Z,10.44464111
2022-11-04T00:44:09.861Z,10.49499512
2022-11-04T00:45:10.446Z,10.47485352
2022-11-04T00:46:12.411Z,10.50506592
2022-11-04T00:47:44.469Z,10.50506592
2022-11-04T00:48:45.108Z,10.51513672
2022-11-04T00:49:45.689Z,10.49499512
2022-11-04T00:50:47.289Z,10.44464111
2022-11-04T00:51:48.050Z,10.44464111
2022-11-04T00:52:48.580Z,10.43457031
2022-11-04T00:53:49.213Z,10.42449951
2022-11-04T00:54:50.018Z,10.36407471
2022-11-04T00:55:51.640Z,10.34393311
2022-11-04T00:56:52.577Z,10.3137207
2022-11-04T00:57:53.418Z,10.2935791
2022-11-04T00:58:54.872Z,10.3137207
2022-11-04T00:59:55.506Z,10.3137207
2022-11-04T01:00:56.698Z,10.3137207
2022-11-04T01:01:57.618Z,10.2432251
2022-11-04T01:02:58.319Z,10.20294189
2022-11-04T01:03:59.023Z,10.16265869
2022-11-04T01:04:59.690Z,10.17272949
2022-11-04T01:06:00.406Z,10.20294189
2022-11-04T01:07:00.962Z,10.20294189
2022-11-04T01:08:01.622Z,10.16265869
2022-11-04T01:09:02.294Z,10.16265869
2022-11-04T01:10:02.827Z,10.13244629
2022-11-04T01:11:04.178Z,10.11230469
2022-11-04T01:12:04.867Z,10.09216309
2022-11-04T01:13:06.813Z,10.09216309
2022-11-04T01:14:07.214Z,10.11230469
2022-11-04T01:15:07.873Z,10.16265869
2022-11-04T01:16:08.407Z,10.17272949
2022-11-04T01:17:09.608Z,10.17272949
2022-11-04T01:18:10.439Z,10.18280029
2022-11-04T01:19:10.727Z,10.20294189
2022-11-04T01:20:11.250Z,10.2633667
2022-11-04T01:21:12.688Z,10.34393311
2022-11-04T01:22:43.867Z,10.35400391
2022-11-04T01:23:44.580Z,10.35400391
2022-11-04T01:24:45.337Z,10.35400391
2022-11-04T01:25:45.945Z,10.34393311
2022-11-04T01:26:46.594Z,10.36407471
2022-11-04T01:27:47.090Z,10.36407471
2022-11-04T01:28:47.765Z,10.3237915
2022-11-04T01:29:48.337Z,10.35400391
2022-11-04T01:30:49.844Z,10.3237915
2022-11-04T01:31:50.525Z,10.3137207
2022-11-04T01:32:50.964Z,10.2935791
2022-11-04T01:33:51.505Z,10.2633667
2022-11-04T01:34:52.110Z,10.2532959
2022-11-04T01:35:52.748Z,10.2230835
2022-11-04T01:36:53.173Z,10.17272949
2022-11-04T01:37:53.621Z,10.17272949
2022-11-04T01:38:54.199Z,10.14251709
2022-11-04T01:39:55.054Z,10.11230469
2022-11-04T01:40:56.153Z,10.06195068
2022-11-04T01:41:57.672Z,10.07202148
2022-11-04T01:42:58.195Z,10.06195068
2022-11-04T01:43:58.793Z,10.07202148
2022-11-04T01:44:59.416Z,10.09216309
2022-11-04T01:45:59.951Z,10.07202148
2022-11-04T01:47:00.538Z,10.09216309
2022-11-04T01:48:01.200Z,10.07202148
2022-11-04T01:49:01.791Z,10.10223389
2022-11-04T01:50:02.731Z,10.06195068
2022-11-04T01:51:04.410Z,10.01159668
2022-11-04T01:52:05.137Z,9.991455078
2022-11-04T01:53:06.060Z,9.981384277
2022-11-04T01:54:06.303Z,9.991455078
2022-11-04T01:55:07.076Z,10.01159668
2022-11-04T01:56:07.752Z,9.991455078
2022-11-04T01:57:08.849Z,9.991455078
2022-11-04T01:58:09.915Z,9.991455078
2022-11-04T01:59:10.501Z,10.01159668
2022-11-04T02:00:11.159Z,10.04180908
2022-11-04T02:01:13.171Z,10.07202148
2022-11-04T02:02:44.299Z,10.09216309
2022-11-04T02:03:44.873Z,10.06195068
2022-11-04T02:04:45.474Z,10.04180908
2022-11-04T02:05:46.132Z,10.01159668
2022-11-04T02:06:46.842Z,9.981384277
2022-11-04T02:07:47.529Z,10.01159668
2022-11-04T02:08:48.143Z,10.01159668
2022-11-04T02:09:48.665Z,9.961242676
2022-11-04T02:10:49.906Z,9.981384277
2022-11-04T02:11:50.619Z,9.991455078
2022-11-04T02:12:51.491Z,9.981384277
2022-11-04T02:13:52.178Z,9.961242676
2022-11-04T02:14:52.729Z,9.931030273
2022-11-04T02:15:53.356Z,9.931030273
2022-11-04T02:16:53.933Z,9.951171875
2022-11-04T02:17:54.847Z,9.961242676
2022-11-04T02:18:55.558Z,9.931030273
2022-11-04T02:19:56.176Z,9.931030273
2022-11-04T02:20:57.423Z,9.931030273
2022-11-04T02:21:57.988Z,9.910888672
2022-11-04T02:22:58.785Z,9.920959473
2022-11-04T02:23:59.463Z,9.910888672
2022-11-04T02:25:00.177Z,9.89074707
2022-11-04T02:26:00.912Z,9.910888672
2022-11-04T02:27:01.544Z,9.951171875
2022-11-04T02:28:02.306Z,9.961242676
2022-11-04T02:29:02.880Z,9.920959473
2022-11-04T02:30:03.699Z,9.920959473
2022-11-04T02:31:04.867Z,9.910888672
2022-11-04T02:32:05.401Z,9.920959473
2022-11-04T02:33:06.684Z,9.931030273
2022-11-04T02:34:06.748Z,9.931030273
2022-11-04T02:35:07.278Z,9.931030273
2022-11-04T02:36:07.943Z,9.931030273
2022-11-04T02:37:08.366Z,9.89074707
2022-11-04T02:38:08.904Z,9.910888672
2022-11-04T02:39:09.456Z,9.88067627
2022-11-04T02:40:10.108Z,9.89074707
2022-11-04T02:41:11.376Z,9.910888672
2022-11-04T02:42:12.178Z,9.88067627
2022-11-04T02:43:43.024Z,9.88067627
2022-11-04T02:44:43.823Z,9.860534668
2022-11-04T02:45:44.483Z,9.850463867
2022-11-04T02:46:45.038Z,9.860534668
2022-11-04T02:47:46.417Z,9.88067627
2022-11-04T02:48:47.209Z,9.88067627
2022-11-04T02:49:47.842Z,9.850463867
2022-11-04T02:50:48.469Z,9.850463867
2022-11-04T02:51:49.596Z,9.850463867
2022-11-04T02:52:51.423Z,9.850463867
2022-11-04T02:53:51.072Z,9.850463867
2022-11-04T02:54:51.775Z,9.850463867
2022-11-04T02:55:53.149Z,9.88067627
2022-11-04T02:56:54.369Z,9.910888672
2022-11-04T02:57:54.750Z,9.931030273
2022-11-04T02:58:55.238Z,9.931030273
2022-11-04T02:59:56.013Z,9.920959473
2022-11-04T03:00:56.605Z,9.910888672
2022-11-04T03:01:57.825Z,9.89074707
2022-11-04T03:02:58.913Z,9.860534668
2022-11-04T03:03:59.497Z,9.860534668
2022-11-04T03:05:00.305Z,9.850463867
2022-11-04T03:06:02.010Z,9.810180664
2022-11-04T03:07:02.587Z,9.779968262
2022-11-04T03:08:03.020Z,9.779968262
2022-11-04T03:09:03.671Z,9.800109863
2022-11-04T03:10:05.477Z,9.800109863
2022-11-04T03:11:06.916Z,9.810180664
2022-11-04T03:12:07.658Z,9.810180664
2022-11-04T03:13:08.201Z,9.810180664
2022-11-04T03:14:08.798Z,9.800109863
2022-11-04T03:15:09.567Z,9.769897461
2022-11-04T03:16:10.102Z,9.749755859
2022-11-04T03:17:10.813Z,9.739685059
2022-11-04T03:18:11.443Z,9.810180664
2022-11-04T03:19:42.189Z,9.830322266
2022-11-04T03:20:43.036Z,9.850463867
2022-11-04T03:21:44.387Z,9.860534668
2022-11-04T03:22:45.068Z,9.810180664
2022-11-04T03:23:45.605Z,9.779968262
2022-11-04T03:24:46.260Z,9.769897461
2022-11-04T03:25:47.000Z,9.800109863
2022-11-04T03:26:47.682Z,9.800109863
2022-11-04T03:27:48.196Z,9.769897461
2022-11-04T03:28:48.643Z,9.769897461
2022-11-04T03:29:49.230Z,9.769897461
2022-11-04T03:30:49.914Z,9.769897461
2022-11-04T03:31:51.164Z,9.769897461
2022-11-04T03:32:51.810Z,9.739685059
2022-11-04T03:33:52.512Z,9.729614258
2022-11-04T03:34:53.551Z,9.679260254
2022-11-04T03:35:54.094Z,9.669189453
2022-11-04T03:36:55.917Z,9.649047852
2022-11-04T03:37:56.445Z,9.62890625
2022-11-04T03:38:56.993Z,9.679260254
2022-11-04T03:39:57.427Z,9.729614258
2022-11-04T03:40:57.854Z,9.749755859
2022-11-04T03:41:59.460Z,9.779968262
2022-11-04T03:42:59.995Z,9.810180664
2022-11-04T03:44:00.565Z,9.810180664
2022-11-04T03:45:01.107Z,9.88067627
2022-11-04T03:46:01.647Z,9.88067627
2022-11-04T03:47:02.323Z,9.88067627
2022-11-04T03:48:03.257Z,9.860534668
2022-11-04T03:49:03.880Z,9.89074707
2022-11-04T03:50:04.520Z,9.860534668
2022-11-04T03:51:05.083Z,9.860534668
2022-11-04T03:52:06.213Z,9.850463867
2022-11-04T03:53:07.302Z,9.88067627
2022-11-04T03:54:07.685Z,9.88067627
2022-11-04T03:55:08.270Z,9.860534668
2022-11-04T03:56:08.876Z,9.850463867
2022-11-04T03:57:09.432Z,9.860534668
2022-11-04T03:58:10.608Z,9.860534668
2022-11-04T03:59:11.402Z,9.88067627
2022-11-04T04:00:42.456Z,9.88067627
2022-11-04T04:01:43.958Z,9.860534668
2022-11-04T04:02:44.413Z,9.850463867
2022-11-04T04:03:45.341Z,9.830322266
2022-11-04T04:04:46.863Z,9.800109863
2022-11-04T04:05:47.540Z,9.800109863
2022-11-04T04:06:48.124Z,9.810180664
2022-11-04T04:07:49.681Z,9.830322266
2022-11-04T04:08:50.626Z,9.830322266
2022-11-04T04:09:51.304Z,9.860534668
2022-11-04T04:10:51.956Z,9.910888672
2022-11-04T04:11:53.409Z,9.910888672
2022-11-04T04:12:53.979Z,9.920959473
2022-11-04T04:13:54.769Z,9.931030273
2022-11-04T04:14:55.548Z,9.961242676
2022-11-04T04:15:56.297Z,9.991455078
2022-11-04T04:16:57.053Z,10.01159668
2022-11-04T04:17:57.800Z,10.04180908
2022-11-04T04:18:58.869Z,10.07202148
2022-11-04T04:19:59.086Z,10.10223389
2022-11-04T04:20:59.859Z,10.09216309
2022-11-04T04:22:01.146Z,10.11230469
2022-11-04T04:23:01.855Z,10.13244629
2022-11-04T04:24:02.310Z,10.14251709
2022-11-04T04:25:02.699Z,10.16265869
2022-11-04T04:26:03.207Z,10.16265869
2022-11-04T04:27:03.837Z,10.16265869
2022-11-04T04:28:04.420Z,10.18280029
2022-11-04T04:29:05.046Z,10.18280029
2022-11-04T04:30:05.561Z,10.2230835
2022-11-04T04:31:06.130Z,10.2432251
2022-11-04T04:32:07.683Z,10.2432251
2022-11-04T04:33:08.312Z,10.2230835
2022-11-04T04:34:09.646Z,10.2230835
2022-11-04T04:35:10.150Z,10.20294189
2022-11-04T04:36:41.311Z,10.18280029
2022-11-04T04:37:42.765Z,10.18280029
2022-11-04T04:38:43.337Z,10.18280029
2022-11-04T04:39:43.923Z,10.18280029
2022-11-04T04:40:44.473Z,10.17272949
2022-11-04T04:41:45.909Z,10.17272949
2022-11-04T04:42:46.514Z,10.16265869
2022-11-04T04:43:47.191Z,10.16265869
2022-11-04T04:44:47.753Z,10.16265869
2022-11-04T04:45:48.279Z,10.17272949
2022-11-04T04:46:48.867Z,10.17272949
2022-11-04T04:47:49.452Z,10.16265869
2022-11-04T04:48:49.965Z,10.17272949
2022-11-04T04:49:50.615Z,10.17272949
2022-11-04T04:50:51.184Z,10.16265869
2022-11-04T04:51:52.373Z,10.17272949
2022-11-04T04:52:52.964Z,10.17272949
2022-11-04T04:53:53.509Z,10.18280029
2022-11-04T04:54:54.124Z,10.20294189
2022-11-04T04:55:54.591Z,10.2230835
2022-11-04T04:56:55.173Z,10.18280029
2022-11-04T04:57:55.806Z,10.20294189
2022-11-04T04:58:56.377Z,10.18280029
2022-11-04T04:59:56.999Z,10.18280029
2022-11-04T05:00:57.643Z,10.16265869
2022-11-04T05:01:59.030Z,10.14251709
2022-11-04T05:02:59.474Z,10.14251709
2022-11-04T05:04:00.026Z,10.11230469
2022-11-04T05:05:00.738Z,10.11230469
2022-11-04T05:06:01.311Z,10.06195068
2022-11-04T05:07:01.857Z,9.991455078
2022-11-04T05:08:03.256Z,10.01159668
2022-11-04T05:09:03.860Z,10.01159668
2022-11-04T05:10:04.466Z,9.981384277
2022-11-04T05:11:04.967Z,9.961242676
2022-11-04T05:12:06.392Z,10.01159668
2022-11-04T05:13:07.018Z,10.01159668
2022-11-04T05:14:07.585Z,10.02166748
2022-11-04T05:15:08.193Z,10.01159668
2022-11-04T05:16:08.722Z,9.991455078
2022-11-04T05:17:09.250Z,10.01159668
2022-11-04T05:18:10.190Z,10.02166748
2022-11-04T05:19:40.838Z,10.06195068
2022-11-04T05:20:41.449Z,10.04180908
2022-11-04T05:21:42.057Z,10.04180908
2022-11-04T05:22:43.191Z,10.04180908
2022-11-04T05:23:43.818Z,10.02166748
2022-11-04T05:24:44.403Z,10.01159668
2022-11-04T05:25:45.044Z,9.991455078
2022-11-04T05:26:45.593Z,9.981384277
2022-11-04T05:27:46.177Z,9.961242676
2022-11-04T05:28:46.767Z,9.961242676
2022-11-04T05:29:47.314Z,9.961242676
2022-11-04T05:30:47.898Z,9.961242676
2022-11-04T05:31:48.435Z,9.951171875
2022-11-04T05:32:49.690Z,9.931030273
2022-11-04T05:33:50.534Z,9.920959473
2022-11-04T05:34:51.065Z,9.89074707
2022-11-04T05:35:51.688Z,9.920959473
2022-11-04T05:36:52.165Z,9.920959473
2022-11-04T05:37:53.375Z,9.951171875
2022-11-04T05:38:53.927Z,9.951171875
2022-11-04T05:39:54.458Z,9.931030273
2022-11-04T05:40:55.022Z,9.961242676
2022-11-04T05:41:56.409Z,9.931030273
2022-11-04T05:42:56.971Z,9.931030273
2022-11-04T05:43:57.529Z,9.931030273
2022-11-04T05:44:58.890Z,9.910888672
2022-11-04T05:45:59.478Z,9.88067627
2022-11-04T05:47:00.030Z,9.830322266
2022-11-04T05:48:00.567Z,9.810180664
2022-11-04T05:49:01.119Z,9.800109863
2022-11-04T05:50:01.819Z,9.749755859
2022-11-04T05:51:02.305Z,9.699401855
2022-11-04T05:52:03.366Z,9.699401855
2022-11-04T05:53:03.907Z,9.699401855
2022-11-04T05:54:04.445Z,9.679260254
2022-11-04T05:55:04.996Z,9.62890625
2022-11-04T05:56:05.564Z,9.598693848
2022-11-04T05:57:06.940Z,9.548339844
2022-11-04T05:58:07.890Z,9.518127441
2022-11-04T05:59:08.106Z,9.49798584
2022-11-04T06:00:08.754Z,9.487915039
2022-11-04T06:01:09.830Z,9.447631836
2022-11-04T06:02:41.783Z,9.397277832
2022-11-04T06:03:42.333Z,9.37713623
2022-11-04T06:04:42.889Z,9.37713623
2022-11-04T06:05:43.396Z,9.37713623
2022-11-04T06:06:44.046Z,9.397277832
2022-11-04T06:07:45.395Z,9.447631836
2022-11-04T06:08:45.927Z,9.447631836
2022-11-04T06:09:46.490Z,9.447631836
2022-11-04T06:10:47.091Z,9.397277832
2022-11-04T06:11:47.689Z,9.37713623
2022-11-04T06:12:49.227Z,9.407348633
2022-11-04T06:13:49.888Z,9.417419434
2022-11-04T06:14:50.618Z,9.417419434
2022-11-04T06:15:51.180Z,9.437561035
2022-11-04T06:16:51.799Z,9.437561035
2022-11-04T06:17:52.327Z,9.447631836
2022-11-04T06:18:52.966Z,9.447631836
2022-11-04T06:19:53.600Z,9.407348633
2022-11-04T06:20:54.156Z,9.346923828
2022-11-04T06:21:54.753Z,9.346923828
2022-11-04T06:22:56.855Z,9.346923828
2022-11-04T06:23:57.633Z,9.316711426
2022-11-04T06:24:58.235Z,9.296569824
2022-11-04T06:25:58.806Z,9.23614502
2022-11-04T06:26:59.431Z,9.125366211
2022-11-04T06:27:59.954Z,9.044799805
2022-11-04T06:29:00.507Z,9.034729004
2022-11-04T06:30:01.103Z,9.064941406
2022-11-04T06:31:01.653Z,9.075012207
2022-11-04T06:32:02.265Z,9.075012207
2022-11-04T06:33:03.673Z,9.095153809
2022-11-04T06:34:04.211Z,9.095153809
2022-11-04T06:35:04.738Z,9.064941406
2022-11-04T06:36:05.331Z,9.095153809
2022-11-04T06:37:06.485Z,9.125366211
2022-11-04T06:38:07.341Z,9.145507813
2022-11-04T06:39:07.649Z,9.155578613
2022-11-04T06:40:08.232Z,9.145507813
2022-11-04T06:41:09.338Z,9.23614502
2022-11-04T06:42:41.183Z,9.256286621
2022-11-04T06:43:41.762Z,9.266357422
2022-11-04T06:44:42.379Z,9.296569824
2022-11-04T06:45:42.929Z,9.306640625
2022-11-04T06:46:43.505Z,9.336853027
2022-11-04T06:47:44.114Z,9.36706543
2022-11-04T06:48:44.725Z,9.397277832
2022-11-04T06:49:45.337Z,9.407348633
2022-11-04T06:50:45.944Z,9.407348633
2022-11-04T06:51:46.491Z,9.437561035
2022-11-04T06:52:47.991Z,9.437561035
2022-11-04T06:53:48.532Z,9.447631836
2022-11-04T06:54:49.175Z,9.487915039
2022-11-04T06:55:49.771Z,9.487915039
2022-11-04T06:56:50.579Z,9.477844238
2022-11-04T06:57:51.197Z,9.49798584
2022-11-04T06:58:51.686Z,9.518127441
2022-11-04T06:59:52.190Z,9.548339844
2022-11-04T07:00:52.879Z,9.558410645
2022-11-04T07:01:53.611Z,9.578552246
2022-11-04T07:02:55.115Z,9.578552246
2022-11-04T07:03:55.730Z,9.558410645
2022-11-04T07:05:57.030Z,9.558410645
2022-11-04T07:06:57.649Z,9.558410645
2022-11-04T07:07:58.904Z,9.578552246
2022-11-04T07:08:59.413Z,9.548339844
2022-11-04T07:10:00.057Z,9.528198242
2022-11-04T07:11:00.573Z,9.548339844
2022-11-04T07:12:01.170Z,9.518127441
2022-11-04T07:13:02.416Z,9.528198242
2022-11-04T07:14:03.146Z,9.548339844
2022-11-04T07:15:04.073Z,9.548339844
2022-11-04T07:16:04.695Z,9.548339844
2022-11-04T07:17:05.508Z,9.528198242
2022-11-04T07:18:06.512Z,9.49798584
2022-11-04T07:19:06.745Z,9.49798584
2022-11-04T07:20:07.483Z,9.487915039
2022-11-04T07:21:10.149Z,9.487915039
2022-11-04T07:22:39.373Z,9.477844238
2022-11-04T07:23:40.736Z,9.447631836
2022-11-04T07:24:41.227Z,9.447631836
2022-11-04T07:25:42.037Z,9.487915039
2022-11-04T07:26:42.734Z,9.477844238
2022-11-04T07:27:43.328Z,9.487915039
2022-11-04T07:28:43.948Z,9.477844238
2022-11-04T07:29:44.477Z,9.487915039
2022-11-04T07:30:45.237Z,9.487915039
2022-11-04T07:31:45.721Z,9.49798584
2022-11-04T07:32:47.424Z,9.49798584
2022-11-04T07:33:47.885Z,9.49798584
2022-11-04T07:34:48.309Z,9.518127441
2022-11-04T07:35:48.944Z,9.528198242
2022-11-04T07:36:49.532Z,9.528198242
2022-11-04T07:37:50.403Z,9.548339844
2022-11-04T07:38:51.677Z,9.548339844
2022-11-04T07:39:52.078Z,9.558410645
2022-11-04T07:40:52.514Z,9.558410645
2022-11-04T07:41:58.284Z,9.578552246
2022-11-04T07:42:53.990Z,9.578552246
2022-11-04T07:43:54.570Z,9.588623047
2022-11-04T07:44:55.664Z,9.588623047
2022-11-04T07:45:56.225Z,9.598693848
2022-11-04T07:46:56.989Z,9.588623047
2022-11-04T07:47:57.655Z,9.598693848
2022-11-04T07:48:58.451Z,9.588623047
2022-11-04T07:49:59.040Z,9.588623047
2022-11-04T07:50:59.518Z,9.558410645
2022-11-04T07:52:00.268Z,9.578552246
2022-11-04T07:53:01.975Z,9.578552246
2022-11-04T07:54:02.743Z,9.598693848
2022-11-04T07:55:03.424Z,9.618835449
2022-11-04T07:56:04.019Z,9.62890625
2022-11-04T07:57:04.687Z,9.699401855
2022-11-04T07:58:05.533Z,9.729614258
2022-11-04T07:59:06.217Z,9.729614258
2022-11-04T08:00:06.833Z,9.729614258
2022-11-04T08:01:07.527Z,9.749755859
2022-11-04T08:02:38.897Z,9.769897461
2022-11-04T08:03:40.384Z,9.769897461
2022-11-04T08:04:41.263Z,9.779968262
2022-11-04T08:05:41.933Z,9.810180664
2022-11-04T08:06:42.489Z,9.830322266
2022-11-04T08:07:43.211Z,9.88067627
2022-11-04T08:08:44.969Z,9.910888672
2022-11-04T08:09:45.716Z,9.920959473
2022-11-04T08:10:46.271Z,9.931030273
2022-11-04T08:11:46.828Z,9.961242676
2022-11-04T08:12:47.356Z,9.991455078
2022-11-04T08:13:48.257Z,10.04180908
2022-11-04T08:14:49.496Z,10.06195068
2022-11-04T08:15:50.282Z,10.09216309
2022-11-04T08:16:50.861Z,10.11230469
2022-11-04T08:17:51.354Z,10.13244629
2022-11-04T08:18:51.960Z,10.16265869
2022-11-04T08:19:52.563Z,10.20294189
2022-11-04T08:20:53.178Z,10.2230835
2022-11-04T08:21:53.693Z,10.18280029
2022-11-04T08:22:54.120Z,10.17272949
2022-11-04T08:23:55.262Z,10.18280029
2022-11-04T08:24:55.949Z,10.20294189
2022-11-04T08:25:56.598Z,10.20294189
2022-11-04T08:26:57.237Z,10.2432251
2022-11-04T08:28:00.847Z,10.2633667
2022-11-04T08:28:58.317Z,10.2835083
2022-11-04T08:29:59.077Z,10.2935791
2022-11-04T08:30:59.753Z,10.3137207
2022-11-04T08:32:00.405Z,10.3137207
2022-11-04T08:33:00.943Z,10.34393311
2022-11-04T08:34:02.219Z,10.35400391
2022-11-04T08:35:03.124Z,10.38421631
2022-11-04T08:36:03.794Z,10.43457031
2022-11-04T08:37:04.570Z,10.46478271
2022-11-04T08:38:05.133Z,10.49499512
2022-11-04T08:39:10.369Z,10.50506592
2022-11-04T08:40:06.438Z,10.54534912
2022-11-04T08:41:07.136Z,10.57556152
2022-11-04T08:42:38.379Z,10.54534912
2022-11-04T08:43:39.589Z,10.56549072
2022-11-04T08:44:40.906Z,10.56549072
2022-11-04T08:45:41.679Z,10.57556152
2022-11-04T08:46:42.518Z,10.61584473
2022-11-04T08:47:43.229Z,10.67626953
2022-11-04T08:48:43.838Z,10.69641113
2022-11-04T08:49:44.363Z,10.71655273
2022-11-04T08:50:45.029Z,10.71655273
2022-11-04T08:51:45.667Z,10.75683594
2022-11-04T08:52:46.350Z,10.75683594
2022-11-04T08:53:47.882Z,10.77697754
2022-11-04T08:54:51.221Z,10.77697754
2022-11-04T08:55:49.189Z,10.75683594
2022-11-04T08:56:50.094Z,10.77697754
2022-11-04T08:57:51.032Z,10.77697754
2022-11-04T08:58:51.637Z,10.80718994
2022-11-04T08:59:52.291Z,10.82733154
2022-11-04T09:00:53.005Z,10.89782715
2022-11-04T09:01:53.662Z,10.92803955
2022-11-04T09:02:54.276Z,10.93811035
2022-11-04T09:03:55.792Z,10.93811035
2022-11-04T09:04:56.348Z,10.87768555
2022-11-04T09:05:56.979Z,10.87768555
2022-11-04T09:06:57.760Z,10.89782715
2022-11-04T09:07:58.573Z,10.85754395
2022-11-04T09:09:00.000Z,10.87768555
2022-11-04T09:10:00.578Z,10.89782715
2022-11-04T09:11:01.153Z,10.90789795
2022-11-04T09:12:01.776Z,10.97839355
2022-11-04T09:13:03.311Z,11.00860596
2022-11-04T09:14:04.940Z,11.01867676
2022-11-04T09:15:05.529Z,11.04888916
2022-11-04T09:16:06.257Z,11.07910156
2022-11-04T09:17:06.816Z,11.15966797
2022-11-04T09:18:38.214Z,11.18988037
2022-11-04T09:19:38.792Z,11.24023438
2022-11-04T09:20:39.370Z,11.28051758
2022-11-04T09:21:40.063Z,11.31072998
2022-11-04T09:22:45.605Z,11.31072998
2022-11-04T09:23:42.418Z,11.31072998
2022-11-04T09:24:43.021Z,11.30065918
2022-11-04T09:25:43.662Z,11.28051758
2022-11-04T09:26:44.302Z,11.27044678
2022-11-04T09:27:45.425Z,11.28051758
2022-11-04T09:28:46.210Z,11.28051758
2022-11-04T09:29:47.016Z,11.28051758
2022-11-04T09:30:47.670Z,11.27044678
2022-11-04T09:31:48.355Z,11.27044678
2022-11-04T09:32:52.749Z,11.24023438
2022-11-04T09:33:51.456Z,11.24023438
2022-11-04T09:34:52.166Z,11.19995117
2022-11-04T09:35:52.775Z,11.19995117
2022-11-04T09:36:53.417Z,11.26037598
2022-11-04T09:37:54.759Z,11.27044678
2022-11-04T09:38:55.347Z,11.31072998
2022-11-04T09:39:55.998Z,11.35101318
2022-11-04T09:40:56.605Z,11.39129639
2022-11-04T09:41:57.245Z,11.42150879
2022-11-04T09:42:58.767Z,11.45172119
2022-11-04T09:43:59.931Z,11.46179199
2022-11-04T09:45:20.767Z,11.48193359
2022-11-04T09:46:01.329Z,11.512146
2022-11-04T09:47:01.985Z,11.5625
2022-11-04T09:48:02.466Z,11.46179199
2022-11-04T09:49:03.143Z,11.46179199
2022-11-04T09:50:03.789Z,11.48193359
2022-11-04T09:51:05.400Z,11.46179199
2022-11-04T09:52:06.027Z,11.36108398
2022-11-04T09:53:07.457Z,11.35101318
2022-11-04T09:54:44.345Z,11.36108398
2022-11-04T09:55:40.281Z,11.41143799
2022-11-04T09:56:41.022Z,11.48193359
2022-11-04T09:57:41.721Z,11.5423584
2022-11-04T09:58:42.353Z,11.5725708
2022-11-04T09:59:43.070Z,11.6229248
2022-11-04T16:34:59.287Z,8.641967773
2022-11-04T16:35:59.907Z,8.541259766
2022-11-04T16:37:00.392Z,8.541259766
2022-11-04T16:38:01.508Z,8.571472168
2022-11-04T16:39:32.518Z,8.581542969
2022-11-04T16:40:33.114Z,8.490905762
2022-11-04T16:41:33.826Z,8.521118164
2022-11-04T16:42:34.308Z,8.541259766
2022-11-04T16:43:34.883Z,8.551330566
2022-11-04T16:44:35.516Z,8.581542969
2022-11-04T16:45:36.074Z,8.541259766
2022-11-04T16:46:37.436Z,8.551330566
2022-11-04T16:47:37.959Z,8.631896973
2022-11-04T16:48:38.569Z,8.672180176
2022-11-04T16:49:39.260Z,8.652038574
2022-11-04T16:50:39.844Z,8.682250977
2022-11-04T16:51:40.710Z,8.712463379
2022-11-04T16:52:44.136Z,8.702392578
2022-11-04T16:53:41.708Z,8.73260498
2022-11-04T16:54:42.270Z,8.782958984
2022-11-04T16:55:43.527Z,8.782958984
2022-11-04T16:56:47.937Z,8.823242188
2022-11-04T16:57:48.482Z,8.803100586
2022-11-04T16:58:49.197Z,8.823242188
2022-11-04T16:59:49.790Z,8.833312988
2022-11-04T17:00:50.779Z,8.863525391
2022-11-04T17:01:51.602Z,8.833312988
2022-11-04T17:02:51.953Z,8.85345459
2022-11-04T17:03:52.489Z,8.833312988
2022-11-04T17:04:53.220Z,8.863525391
2022-11-04T17:05:55.061Z,8.863525391
2022-11-04T17:06:55.711Z,8.913879395
2022-11-04T17:08:03.338Z,8.883666992
2022-11-04T17:08:57.800Z,8.863525391
2022-11-04T17:09:58.326Z,8.833312988
2022-11-04T17:10:58.881Z,8.793029785
2022-11-04T17:11:59.368Z,8.782958984
2022-11-04T17:13:00.472Z,8.762817383
2022-11-04T17:14:01.475Z,8.793029785
2022-11-04T17:15:32.684Z,8.752746582
2022-11-04T17:16:33.895Z,8.702392578
2022-11-04T17:17:35.220Z,8.712463379
2022-11-04T17:18:35.788Z,8.73260498
2022-11-04T17:19:36.243Z,8.712463379
2022-11-04T17:20:36.816Z,8.652038574
2022-11-04T17:21:37.382Z,8.641967773
2022-11-04T17:22:37.924Z,8.631896973
2022-11-04T17:23:38.576Z,8.641967773
2022-11-04T17:24:39.067Z,8.672180176
2022-11-04T17:25:39.515Z,8.631896973
2022-11-04T17:26:40.100Z,8.652038574
2022-11-04T17:27:41.177Z,8.702392578
2022-11-04T17:28:41.786Z,8.73260498
2022-11-04T17:29:42.216Z,8.793029785
2022-11-04T17:30:42.726Z,8.833312988
2022-11-04T17:31:43.314Z,8.863525391
2022-11-04T17:32:44.015Z,8.833312988
2022-11-04T17:33:45.428Z,8.803100586
2022-11-04T17:34:45.959Z,8.762817383
2022-11-04T17:35:46.408Z,8.762817383
2022-11-04T17:36:47.044Z,8.793029785
2022-11-04T17:37:48.315Z,8.782958984
2022-11-04T17:38:48.830Z,8.793029785
2022-11-04T17:39:49.345Z,8.793029785
2022-11-04T17:40:49.887Z,8.782958984
2022-11-04T17:41:50.578Z,8.73260498